American Canyon, California
Current Conditions -  °F | °C
As of 5:54 AM on Wednesday 22 Oct 2014 (Local Time) from KAPC Reporting Station
Clear Clear  
Wind Chill: 44°   Ceiling: Unl
Heat Index: 44°   Visibility: 10mi
Dew Point: 44°   Wind: 0mph
Humidity: 100%   Direction: NA
Pressure: 30.04"   Gusts: NA
Location:  38.17°N, 122.25°W
Report Text: KAPC 221254Z AUTO 00000KT 10SM CLR 07/07 A3004 RMK AO2 SLP165 T00670067
Loading
Personal Weather Stations






























Interactive Weather Map
Tropical Storm Tracking
New forecast layout! Learn more

10-Day Weather Forecast

Advertisements
Track Severe Weather on mobile